Home > Products > Valid Products > TAF

000
FTUS45 KFGZ 210500
TAFFLG
TAF
KFLG 210527Z 2106/2206 VRB04KT P6SM FEW110
     FM211800 21012G22KT P6SM SCT110 BKN140
     FM220200 VRB03KT P6SM SCT120=



000
FTUS45 KFGZ 210500
TAFPGA
TAF
KPGA 210527Z 2106/2206 VRB06KT P6SM FEW150=



000
FTUS45 KFGZ 210500
TAFINW
TAF
KINW 210527Z 2106/2206 VRB06KT P6SM SCT120
     FM211900 21012G20KT P6SM SCT140
     FM220200 VRB03KT P6SM SCT140=



000
FTUS45 KFGZ 210200 AAA
TAFINW
TAF AMD
KINW 210235Z 2103/2124 25010KT P6SM BKN120
     FM210500 VRB06KT P6SM SCT140
     FM211900 21012G20KT P6SM SCT120 BKN140=



000
FTUS45 KFGZ 210200 AAA
TAFINW
TAF AMD
KINW 210235Z 2103/2124 25010KT P6SM BKN120
     FM210500 VRB06KT P6SM SCT140
     FM211900 21012G20KT P6SM SCT120 BKN140=



000
FTUS45 KFGZ 202300
TAFPGA
TAF
KPGA 202320Z 2100/2124 VRB06KT P6SM SCT150=



000
FTUS45 KFGZ 202300
TAFINW
TAF
KINW 202320Z 2100/2124 25011G21KT P6SM BKN120
     FM210300 VRB06KT P6SM SCT140
     FM211900 21012G20KT P6SM SCT120 BKN140=



000
FTUS45 KFGZ 202300
TAFPGA
TAF
KPGA 202320Z 2100/2124 VRB06KT P6SM SCT150=



000
FTUS45 KFGZ 202300
TAFFLG
TAF
KFLG 202320Z 2100/2124 31010KT P6SM BKN100
     FM210200 23004KT P6SM SCT110
     FM211800 21012G22KT P6SM SCT110 BKN140=



000
FTUS45 KFGZ 202300
TAFINW
TAF
KINW 202320Z 2100/2124 25011G21KT P6SM BKN120
     FM210300 VRB06KT P6SM SCT140
     FM211900 21012G20KT P6SM SCT120 BKN140=



000
FTUS45 KFGZ 202300
TAFFLG
TAF
KFLG 202320Z 2100/2124 31010KT P6SM BKN100
     FM210200 23004KT P6SM SCT110
     FM211800 21012G22KT P6SM SCT110 BKN140=



000
FTUS45 KFGZ 202200 AAB
TAFINW
TAF AMD
KINW 202204Z 2022/2118 25013G22KT P6SM SCT140
     FM210200 23009KT P6SM SCT140=



000
FTUS45 KFGZ 202200 AAB
TAFINW
TAF AMD
KINW 202204Z 2022/2118 25013G22KT P6SM SCT140
     FM210200 23009KT P6SM SCT140=



000
FTUS45 KFGZ 202000 AAA
TAFFLG
TAF AMD
KFLG 202041Z 2021/2118 VRB06KT P6SM SCT100 BKN140
     FM210200 23004KT P6SM SCT110=



000
FTUS45 KFGZ 202000 AAA
TAFINW
TAF AMD
KINW 202041Z 2021/2118 26010KT P6SM SCT140
     FM210200 23009KT P6SM SCT140=



000
FTUS45 KFGZ 202000 AAA
TAFFLG
TAF AMD
KFLG 202041Z 2021/2118 VRB06KT P6SM SCT100 BKN140
     FM210200 23004KT P6SM SCT110=



000
FTUS45 KFGZ 202000 AAA
TAFINW
TAF AMD
KINW 202041Z 2021/2118 26010KT P6SM SCT140
     FM210200 23009KT P6SM SCT140=



000
FTUS45 KFGZ 201700
TAFINW
TAF
KINW 201720Z 2018/2118 VRB05KT P6SM SKC
     FM201900 26012G19KT P6SM SCT140
     FM210200 23009KT P6SM SCT140=



000
FTUS45 KFGZ 201700
TAFFLG
TAF
KFLG 201720Z 2018/2118 23012G17KT P6SM SCT100 BKN140
     FM210200 23004KT P6SM SCT110=



000
FTUS45 KFGZ 201700
TAFPGA
TAF
KPGA 201720Z 2018/2118 VRB06KT P6SM SCT150=



000
FTUS45 KFGZ 201700
TAFPGA
TAF
KPGA 201720Z 2018/2118 VRB06KT P6SM SCT150=



000
FTUS45 KFGZ 201700
TAFFLG
TAF
KFLG 201720Z 2018/2118 23012G17KT P6SM SCT100 BKN140
     FM210200 23004KT P6SM SCT110=



000
FTUS45 KFGZ 201700
TAFINW
TAF
KINW 201720Z 2018/2118 VRB05KT P6SM SKC
     FM201900 26012G19KT P6SM SCT140
     FM210200 23009KT P6SM SCT140=



000
FTUS45 KFGZ 201100
TAFPGA
TAF
KPGA 201134Z 2012/2112 VRB06KT P6SM SCT150=



000
FTUS45 KFGZ 201100
TAFINW
TAF
KINW 201134Z 2012/2112 VRB05KT P6SM FEW150
     FM202000 25012G18KT P6SM SCT140
     FM210200 23009KT P6SM SCT140=



000
FTUS45 KFGZ 201100
TAFFLG
TAF
KFLG 201134Z 2012/2112 VRB02KT P6SM FEW100
     FM201800 23010G17KT P6SM SCT100 BKN140
     FM210200 23004KT P6SM SCT110=



000
FTUS45 KFGZ 201100
TAFPGA
TAF
KPGA 201134Z 2012/2112 VRB06KT P6SM SCT150=



000
FTUS45 KFGZ 201100
TAFFLG
TAF
KFLG 201134Z 2012/2112 VRB02KT P6SM FEW100
     FM201800 23010G17KT P6SM SCT100 BKN140
     FM210200 23004KT P6SM SCT110=



000
FTUS45 KFGZ 201100
TAFINW
TAF
KINW 201134Z 2012/2112 VRB05KT P6SM FEW150
     FM202000 25012G18KT P6SM SCT140
     FM210200 23009KT P6SM SCT140=



000
FTUS45 KFGZ 200500
TAFINW
TAF
KINW 200520Z 2006/2106 21007KT P6SM FEW150
     FM202000 25010G17KT P6SM SCT140
     FM210200 25007KT P6SM SCT140=



000
FTUS45 KFGZ 200500
TAFINW
TAF
KINW 200520Z 2006/2106 21007KT P6SM FEW150
     FM202000 25010G17KT P6SM SCT140
     FM210200 25007KT P6SM SCT140=



000
FTUS45 KFGZ 200500
TAFFLG
TAF
KFLG 200520Z 2006/2106 VRB02KT P6SM SCT100
     FM201800 23010G17KT P6SM SCT120 BKN150
     FM210200 23005KT P6SM SCT120=



000
FTUS45 KFGZ 200500
TAFPGA
TAF
KPGA 200520Z 2006/2106 VRB06KT P6SM SCT150=



000
FTUS45 KFGZ 200500
TAFPGA
TAF
KPGA 200520Z 2006/2106 VRB06KT P6SM SCT150=



000
FTUS45 KFGZ 200500
TAFFLG
TAF
KFLG 200520Z 2006/2106 VRB02KT P6SM SCT100
     FM201800 23010G17KT P6SM SCT120 BKN150
     FM210200 23005KT P6SM SCT120=



000
FTUS45 KFGZ 200000 AAA
TAFFLG
TAF AMD
KFLG 200019Z 2000/2024 VRB06KT P6SM BKN100
      TEMPO 2000/2002 VRB10G20KT -SHRA OVC070
     FM200200 VRB05KT P6SM SCT100
     FM201800 23010G17KT P6SM SCT100=



000
FTUS45 KFGZ 200000 AAA
TAFFLG
TAF AMD
KFLG 200019Z 2000/2024 VRB06KT P6SM BKN100
      TEMPO 2000/2002 VRB10G20KT -SHRA OVC070
     FM200200 VRB05KT P6SM SCT100
     FM201800 23010G17KT P6SM SCT100=



000
FTUS45 KFGZ 200000 AAA
TAFPGA
TAF AMD
KPGA 200014Z 2000/2024 04011KT P6SM SCT120 BKN150
      TEMPO 2000/2002 VRB15G30KT -SHRA BKN120 OVC150
     FM200300 VRB06KT P6SM SCT200=



000
FTUS45 KFGZ 192300 CCA
TAFFLG
TAF COR
KFLG 192327Z 2000/2024 06007KT P6SM BKN100
      TEMPO 2000/2001 02015G25KT 5SM -SHRA OVC070
     FM200200 VRB05KT P6SM SCT100
     FM201800 23010G17KT P6SM SCT100=



000
FTUS45 KFGZ 192300
TAFINW
TAF
KINW 192323Z 2000/2024 26015G24KT P6SM SCT150
     FM200400 21007KT P6SM SCT150
     FM202000 25010G17KT P6SM SCT250=



000
FTUS45 KFGZ 192300
TAFPGA
TAF
KPGA 192323Z 2000/2024 05007KT P6SM FEW120
      TEMPO 2000/2003 36015G25KT P6SM BKN150
     FM200300 VRB06KT P6SM SCT200=



000
FTUS45 KFGZ 192300
TAFFLG
TAF
KFLG 192323Z 2000/2024 06007KT P6SM BKN100
     FM200200 VRB05KT P6SM SCT100
     FM201800 23010G17KT P6SM SCT100=



000
FTUS45 KFGZ 192100 AAA
TAFINW
TAF AMD
KINW 192126Z 1921/2018 30015G24KT P6SM SCT130
     FM200400 21009KT P6SM SCT130=



000
FTUS45 KFGZ 191800 AAB
TAFFLG
TAF AMD
KFLG 191813Z 1918/2018 06007KT P6SM BKN100
     FM200100 VRB05KT P6SM SCT100=



000
FTUS45 KFGZ 191700 AAA
TAFFLG
TAF AMD
KFLG 191758Z 1918/2018 09007KT P6SM SCT090
     FM191900 23009G15KT P6SM BKN100
     FM200100 VRB05KT P6SM SCT100=



000
FTUS45 KFGZ 191700 AAA
TAFFLG
TAF AMD
KFLG 191758Z 1918/2018 09007KT P6SM SCT090
     FM191900 23009G15KT P6SM BKN100
     FM200100 VRB05KT P6SM SCT100=



000
FTUS45 KFGZ 191700
TAFPGA
TAF
KPGA 191739Z 1918/2018 05007KT P6SM FEW120
     FM200300 VRB06KT P6SM SCT200=



000
FTUS45 KFGZ 191700
TAFINW
TAF
KINW 191739Z 1918/2018 02007KT P6SM FEW150
     FM192300 29015G24KT P6SM SCT130
     FM200400 21009KT P6SM SCT130=



000
FTUS45 KFGZ 191700
TAFFLG
TAF
KFLG 191739Z 1918/2018 09007KT P6SM FEW090
     FM191900 23009G15KT P6SM BKN100
     FM200100 VRB05KT P6SM SCT100=



000
FTUS45 KFGZ 191700
TAFINW
TAF
KINW 191739Z 1918/2018 02007KT P6SM FEW150
     FM192300 29015G24KT P6SM SCT130
     FM200400 21009KT P6SM SCT130=



000
FTUS45 KFGZ 191700
TAFPGA
TAF
KPGA 191739Z 1918/2018 05007KT P6SM FEW120
     FM200300 VRB06KT P6SM SCT200=



000
FTUS45 KFGZ 191700
TAFFLG
TAF
KFLG 191739Z 1918/2018 09007KT P6SM FEW090
     FM191900 23009G15KT P6SM BKN100
     FM200100 VRB05KT P6SM SCT100=



000
FTUS45 KFGZ 191100
TAFFLG
TAF
KFLG 191124Z 1912/2012 VRB03KT P6SM FEW090
     FM191900 25010G16KT P6SM BKN100
     FM200100 VRB05KT P6SM SCT100=



000
FTUS45 KFGZ 191100
TAFINW
TAF
KINW 191124Z 1912/2012 VRB06KT P6SM FEW120
     FM192000 31010G18KT P6SM SCT130
     FM200200 VRB05KT P6SM SCT130=



000
FTUS45 KFGZ 191100
TAFPGA
TAF
KPGA 191124Z 1912/2012 VRB05KT P6SM SCT120
     FM192000 04008KT P6SM SCT130=



000
FTUS45 KFGZ 191100
TAFFLG
TAF
KFLG 191124Z 1912/2012 VRB03KT P6SM FEW090
     FM191900 25010G16KT P6SM BKN100
     FM200100 VRB05KT P6SM SCT100=



000
FTUS45 KFGZ 191100
TAFINW
TAF
KINW 191124Z 1912/2012 VRB06KT P6SM FEW120
     FM192000 31010G18KT P6SM SCT130
     FM200200 VRB05KT P6SM SCT130=



000
FTUS45 KFGZ 191100
TAFPGA
TAF
KPGA 191124Z 1912/2012 VRB05KT P6SM SCT120
     FM192000 04008KT P6SM SCT130=



000
FTUS45 KFGZ 190500
TAFINW
TAF
KINW 190600Z 1906/2006 VRB06KT P6SM FEW120
     FM192000 29008G16KT P6SM SCT130
     FM200200 VRB05KT P6SM SCT130=



000
FTUS45 KFGZ 190500
TAFFLG
TAF
KFLG 190600Z 1906/2006 VRB04KT P6SM FEW090
     FM191900 29010G18KT P6SM BKN100
     FM200100 VRB05KT P6SM SCT100=



000
FTUS45 KFGZ 190500
TAFPGA
TAF
KPGA 190600Z 1906/2006 VRB05KT P6SM SKC
     FM191800 04008KT P6SM SCT130=



000
FTUS45 KFGZ 190500
TAFPGA
TAF
KPGA 190600Z 1906/2006 VRB05KT P6SM SKC
     FM191800 04008KT P6SM SCT130=



000
FTUS45 KFGZ 190500
TAFINW
TAF
KINW 190600Z 1906/2006 VRB06KT P6SM FEW120
     FM192000 29008G16KT P6SM SCT130
     FM200200 VRB05KT P6SM SCT130=



000
FTUS45 KFGZ 190500
TAFFLG
TAF
KFLG 190600Z 1906/2006 VRB04KT P6SM FEW090
     FM191900 29010G18KT P6SM BKN100
     FM200100 VRB05KT P6SM SCT100=



000
FTUS45 KFGZ 190100 AAA
TAFINW
TAF AMD
KINW 190107Z 1901/1924 35009KT P6SM SCT120
     FM190300 VRB06KT P6SM FEW120
     FM192100 33008G16KT P6SM SCT150=



000
FTUS45 KFGZ 190100 AAA
TAFFLG
TAF AMD
KFLG 190106Z 1901/1924 VRB04KT P6SM FEW090
     FM191900 29010G18KT P6SM BKN100=



000
FTUS45 KFGZ 190000 AAB
TAFPGA
TAF AMD
KPGA 190059Z 1901/1924 35010G16KT P6SM BKN110
      TEMPO 1901/1902 36015G35KT
     FM190200 VRB05KT P6SM FEW110=



000
FTUS45 KFGZ 190000 AAB
TAFPGA
TAF AMD
KPGA 190059Z 1901/1924 35010G16KT P6SM BKN110
      TEMPO 1901/1902 36015G35KT
     FM190200 VRB05KT P6SM FEW110=



000
FTUS45 KFGZ 190000 AAA
TAFPGA
TAF AMD
KPGA 190015Z 1900/1924 35010G16KT P6SM BKN110
      TEMPO 1900/1901 36015G35KT
     FM190130 VRB05KT P6SM FEW110=



000
FTUS45 KFGZ 182300
TAFFLG
TAF
KFLG 182337Z 1900/1924 31010G19KT P6SM FEW090
     FM190200 VRB04KT P6SM FEW090
     FM191900 29010G18KT P6SM BKN100=



000
FTUS45 KFGZ 182300
TAFPGA
TAF
KPGA 182337Z 1900/1924 VRB06KT P6SM SCT110=



000
FTUS45 KFGZ 182300
TAFINW
TAF
KINW 182337Z 1900/1924 32015G23KT P6SM SCT120
     FM190300 VRB04KT P6SM FEW120
     FM192100 33008G16KT P6SM SCT150=



000
FTUS45 KFGZ 182300
TAFPGA
TAF
KPGA 182337Z 1900/1924 VRB06KT P6SM SCT110=



000
FTUS45 KFGZ 182300
TAFFLG
TAF
KFLG 182337Z 1900/1924 31010G19KT P6SM FEW090
     FM190200 VRB04KT P6SM FEW090
     FM191900 29010G18KT P6SM BKN100=



000
FTUS45 KFGZ 182300
TAFINW
TAF
KINW 182337Z 1900/1924 32015G23KT P6SM SCT120
     FM190300 VRB04KT P6SM FEW120
     FM192100 33008G16KT P6SM SCT150=



000
FTUS45 KFGZ 181800 AAA
TAFINW
TAF AMD
KINW 181836Z 1819/1918 32011G20KT P6SM SCT110
     FM190200 VRB04KT P6SM FEW120=



000
FTUS45 KFGZ 181800 AAA
TAFINW
TAF AMD
KINW 181836Z 1819/1918 32011G20KT P6SM SCT110
     FM190200 VRB04KT P6SM FEW120=



000
FTUS45 KFGZ 181800 AAA
TAFFLG
TAF AMD
KFLG 181835Z 1819/1918 33010G19KT P6SM SCT100
     FM190200 VRB04KT P6SM FEW090=



000
FTUS45 KFGZ 181800 AAA
TAFFLG
TAF AMD
KFLG 181835Z 1819/1918 33010G19KT P6SM SCT100
     FM190200 VRB04KT P6SM FEW090=



000
FTUS45 KFGZ 181700
TAFPGA
TAF
KPGA 181720Z 1818/1918 33010KT P6SM SCT110=



000
FTUS45 KFGZ 181700
TAFFLG
TAF
KFLG 181720Z 1818/1918 28011G19KT P6SM SCT100
     FM190200 VRB04KT P6SM FEW090=



000
FTUS45 KFGZ 181700
TAFINW
TAF
KINW 181720Z 1818/1918 VRB06KT P6SM SCT080
     FM182000 30011G20KT P6SM SCT110
     FM190200 VRB04KT P6SM FEW120=



000
FTUS45 KFGZ 181100
TAFINW
TAF
KINW 181120Z 1812/1912 VRB06KT P6SM SCT080
     FM182000 30011G20KT P6SM SCT110
     FM190130 VRB04KT P6SM FEW120=



000
FTUS45 KFGZ 181100
TAFINW
TAF
KINW 181120Z 1812/1912 VRB06KT P6SM SCT080
     FM182000 30011G20KT P6SM SCT110
     FM190130 VRB04KT P6SM FEW120=



000
FTUS45 KFGZ 181100
TAFPGA
TAF
KPGA 181120Z 1812/1912 VRB05KT P6SM SCT100 SCT120
     FM181800 33010KT P6SM SCT110=



000
FTUS45 KFGZ 181100
TAFPGA
TAF
KPGA 181120Z 1812/1912 VRB05KT P6SM SCT100 SCT120
     FM181800 33010KT P6SM SCT110=



000
FTUS45 KFGZ 181100
TAFFLG
TAF
KFLG 181120Z 1812/1912 VRB05KT P6SM SCT070
     FM181730 28011G19KT P6SM SCT100
     FM190130 VRB04KT P6SM FEW090=



    US Dept of Commerce
    National Oceanic and Atmospheric Administration
    National Weather Service
    1325 East West Highway
    Silver Spring, MD 20910
    Page Author: NWS Internet Services Team
Disclaimer
Information Quality
Credits
Glossary
Privacy Policy
Freedom of Information Act (FOIA)
About Us
Career Opportunities